Old Blue — WDB9712 — position and weather

sailwx.info

Track history (hours):
 
Tides and Currents Weather Stations Pressure Air Temp Water Temp Dewpoint Dewpoint Depression Visibility Wind Speed Wind Dir Waves Ship Positions

Old Blue

Owner: Blue and Gold Fleet, San Francisco, CA. More information available from US FCC via Universal Licensing System and Coast Guard Vessel Documentation Center.

Last reported at 2018-Feb-20 22:47 UTC. Time now 2018-Feb-23 10:30 UTC.
Position N 38°07' W 122°17'.

Length 24 m; draft 3 m.

Type: Passenger vessel. MMSI: 366981360.

Date/timePositionNaut miles runAvg speedWind from/ knotsBaromVisibWave heightAir tempDewpointWater temp
2018-Feb-20 22:47N 38°07' W 122°17'1 3.8
2018-Feb-20 22:25N 38°06' W 122°15'4 8.5
2018-Feb-20 21:58N 38°03' W 122°19'511.5
2018-Feb-20 21:30N 37°60' W 122°25'611.6
2018-Feb-20 21:00N 37°54' W 122°25'510.9
2018-Feb-20 20:30N 37°49' W 122°25'0 0.4
2018-Feb-20 20:00N 37°49' W 122°25'0 0.0
2018-Feb-20 19:30N 37°49' W 122°25'0 0.0
2018-Feb-20 19:00N 37°49' W 122°25'  
2018-Feb-18 02:05N 37°49' W 122°25'0 0.0
2018-Feb-18 02:00N 37°49' W 122°25'0 0.1
2018-Feb-18 01:29N 37°49' W 122°25'2 4.9
2018-Feb-18 01:00N 37°49' W 122°27'2 4.7
2018-Feb-18 00:30N 37°49' W 122°25'1 2.5
2018-Feb-18 00:00N 37°50' W 122°25'2 3.7
2018-Feb-17 23:30N 37°49' W 122°27'2 4.3
2018-Feb-17 23:00N 37°49' W 122°25'0 0.0
2018-Feb-17 22:30N 37°49' W 122°25'1 2.5
2018-Feb-17 22:00N 37°50' W 122°25'2 3.8
2018-Feb-17 21:30N 37°49' W 122°27'2 4.3
2018-Feb-17 21:00N 37°49' W 122°25'1 2.7
2018-Feb-17 20:30N 37°50' W 122°25'2 4.6
2018-Feb-17 20:00N 37°50' W 122°28'3 6.3
2018-Feb-17 19:30N 37°49' W 122°25'1 2.9
2018-Feb-17 19:00N 37°50' W 122°26'1 1.8
2018-Feb-17 18:31N 37°49' W 122°25'1 1.2
2018-Feb-17 18:00N 37°49' W 122°25'0 0.0
2018-Feb-15 20:05N 37°49' W 122°25'0 0.1
2018-Feb-15 20:00N 37°49' W 122°25'0 0.0
2018-Feb-15 19:31N 37°49' W 122°25'  
Track history (hours):
 
Tides and Currents Weather Stations Pressure Air Temp Water Temp Dewpoint Dewpoint Depression Visibility Wind Speed Wind Dir Waves Ship Positions

Old Blue

Owner: Blue and Gold Fleet, San Francisco, CA. More information available from US FCC via Universal Licensing System and Coast Guard Vessel Documentation Center.

Last reported at 2018-Feb-20 22:47 UTC. Time now 2018-Feb-23 10:30 UTC.
Position N 38°07' W 122°17'.

Length 24 m; draft 3 m.

Type: Passenger vessel. MMSI: 366981360.

Date/timePositionNaut miles runAvg speedWind from/ knotsBaromVisibWave heightAir tempDewpointWater temp
2018-Feb-20 22:47N 38°07' W 122°17'1 3.8
2018-Feb-20 22:25N 38°06' W 122°15'4 8.5
2018-Feb-20 21:58N 38°03' W 122°19'511.5
2018-Feb-20 21:30N 37°60' W 122°25'611.6
2018-Feb-20 21:00N 37°54' W 122°25'510.9
2018-Feb-20 20:30N 37°49' W 122°25'0 0.4
2018-Feb-20 20:00N 37°49' W 122°25'0 0.0
2018-Feb-20 19:30N 37°49' W 122°25'0 0.0
2018-Feb-20 19:00N 37°49' W 122°25'  
2018-Feb-18 02:05N 37°49' W 122°25'0 0.0
2018-Feb-18 02:00N 37°49' W 122°25'0 0.1
2018-Feb-18 01:29N 37°49' W 122°25'2 4.9
2018-Feb-18 01:00N 37°49' W 122°27'2 4.7
2018-Feb-18 00:30N 37°49' W 122°25'1 2.5
2018-Feb-18 00:00N 37°50' W 122°25'2 3.7
2018-Feb-17 23:30N 37°49' W 122°27'2 4.3
2018-Feb-17 23:00N 37°49' W 122°25'0 0.0
2018-Feb-17 22:30N 37°49' W 122°25'1 2.5
2018-Feb-17 22:00N 37°50' W 122°25'2 3.8
2018-Feb-17 21:30N 37°49' W 122°27'2 4.3
2018-Feb-17 21:00N 37°49' W 122°25'1 2.7
2018-Feb-17 20:30N 37°50' W 122°25'2 4.6
2018-Feb-17 20:00N 37°50' W 122°28'3 6.3
2018-Feb-17 19:30N 37°49' W 122°25'1 2.9
2018-Feb-17 19:00N 37°50' W 122°26'1 1.8
2018-Feb-17 18:31N 37°49' W 122°25'1 1.2
2018-Feb-17 18:00N 37°49' W 122°25'0 0.0
2018-Feb-15 20:05N 37°49' W 122°25'0 0.1
2018-Feb-15 20:00N 37°49' W 122°25'0 0.0
2018-Feb-15 19:31N 37°49' W 122°25'  

Dump ship's entire track history